sim
Sign-in with your pilot id or email,
or register
Callsign
Passwort

Schedule Details

Flight Number: OEO7258
Departure: Munich Airport (EDDM) at 08:15
Arrival: Fuerteventura Airport (GCFV) at 13:20

Weather Information
Getting current METAR information for EDDM 160250Z 00000KT 3000 0800SW R08L/0375V0650U R08R/0400V0700U BCFG NSC M04/M05 Q1029 NOSIG
Getting current METAR information for GCFV 160300Z AUTO 27006KT 9999 NCD 13/11 Q1017

Schedule Frequency

Route Map